Airfield :
LOGIN :

Register | Disclaimer

   EN    FR    IT 

 










Legend :    VFR   Marginal VFR   IFR   Intensive IFR   Very Intensive IFR
Visi :
Ceiling :
>= 8 km
>= 3000ft
5 to 8 km
1000 to 3000 ft
1500m to 5 km
500 to 1000 ft
800 to 1500m
200 to 500 ft
< 800m
< 200 ft
Symbols :   Thunderstorms  Fog  Heavy snow  Heavy precipitations  Wind > 20 kt
SIGMETs :     Misc.  Thunderstorms  Icing  Turbulence  Mountain Waves  Volcanic Ashes






- Airport Elevation : 915 ft
- IATA code : LUG


LSZA - Lugano

CURRENT METAR :
  • 291620Z AUTO VRB02KT CAVOK 12/09 Q1019

EXPIRED METARs :
  • 291550Z VRB01KT CAVOK 14/10 Q1019
  • 291520Z 22001KT CAVOK 16/10 Q1018
  • 291450Z VRB01KT 9999 FEW040 17/08 Q1018
  • 291420Z VRB01KT 9999 FEW040 17/07 Q1018
  • 291350Z VRB02KT CAVOK 17/07 Q1018

TAF TAF LSZA
Valid from the 29 at 15:00 until the 30 at 00:00 UTC


291425Z 2915/2924 VRB03KT CAVOK
ATIS : +41 22 417 40 88



MET'MAP, your aeronautical weather chart ! - Copyright ORBIFLY December 2007 - Disclaimer

ORBIFLY MET'MAP TEAM :

Programming & Development : Alexandra Zaïnal
Concept & original design : Baudouin d'Aumeries
Assistance for programming : Marc-Olivier Méhu
Technical & hardware support : Manuel Goepfert

Contact : metmap@orbifly.com




SOURCES & CREDITS :

   NOAA